createdAt,value
2022-09-05T00:00:16.973Z,9.89
2022-09-05T00:04:24.265Z,9.98
2022-09-05T00:07:59.703Z,9.83
2022-09-05T00:11:42.487Z,9.88
2022-09-05T00:15:26.961Z,9.83
2022-09-05T00:24:17.194Z,9.89
2022-09-05T00:24:31.787Z,9.84
2022-09-05T00:27:11.999Z,9.75
2022-09-05T00:31:44.259Z,9.76
2022-09-05T00:34:48.443Z,9.87
2022-09-05T00:38:12.995Z,9.79
2022-09-05T00:41:37.007Z,9.74
2022-09-05T00:45:19.330Z,9.80
2022-09-05T00:48:52.006Z,9.84
2022-09-05T00:52:43.021Z,9.79
2022-09-05T00:56:36.015Z,9.82
2022-09-05T01:00:32.063Z,9.83
2022-09-05T01:04:21.971Z,9.78
2022-09-05T01:08:23.012Z,9.80
2022-09-05T01:12:08.030Z,9.81
2022-09-05T01:15:44.118Z,9.79
2022-09-05T01:19:21.067Z,9.87
2022-09-05T01:23:08.613Z,9.92
2022-09-05T01:26:56.114Z,9.87
2022-09-05T01:30:41.166Z,9.79
2022-09-05T01:34:40.059Z,9.84
2022-09-05T01:38:16.076Z,9.94
2022-09-05T01:41:56.990Z,9.97
2022-09-05T01:45:52.139Z,9.85
2022-09-05T01:49:39.032Z,9.92
2022-09-05T01:53:42.197Z,9.90
2022-09-05T01:57:16.050Z,9.81
2022-09-05T02:00:58.066Z,9.78
2022-09-05T02:05:01.011Z,9.88
2022-09-05T02:08:54.014Z,9.79
2022-09-05T02:12:31.069Z,9.85
2022-09-05T02:16:15.045Z,9.83
2022-09-05T02:19:44.078Z,9.76
2022-09-05T02:23:25.960Z,9.83
2022-09-05T02:27:35.876Z,9.84
2022-09-05T02:31:20.036Z,9.81
2022-09-05T02:35:06.024Z,9.77
2022-09-05T02:45:00.596Z,9.81
2022-09-05T02:45:13.547Z,9.81
2022-09-05T02:47:27.042Z,9.99
2022-09-05T02:57:23.823Z,10.14
2022-09-05T02:57:40.794Z,10.14
2022-09-05T02:59:09.988Z,10.15
2022-09-05T03:02:47.079Z,10.12
2022-09-05T03:06:13.054Z,10.17
2022-09-05T03:09:52.050Z,10.04
2022-09-05T03:13:31.055Z,10.02
2022-09-05T03:17:18.104Z,10.09
2022-09-05T03:21:08.983Z,10.26
2022-09-05T03:25:05.037Z,10.12
2022-09-05T03:29:05.111Z,10.03
2022-09-05T03:32:57.062Z,9.97
2022-09-05T03:36:44.190Z,10.03
2022-09-05T03:40:26.026Z,10.07
2022-09-05T03:44:08.102Z,10.07
2022-09-05T03:47:39.081Z,10.15
2022-09-05T03:56:59.853Z,10.34
2022-09-05T03:57:15.204Z,10.37
2022-09-05T03:59:42.076Z,10.39
2022-09-05T04:08:07.988Z,10.43
2022-09-05T04:08:40.944Z,10.42
2022-09-05T04:11:26.069Z,10.59
2022-09-05T04:15:06.049Z,10.53
2022-09-05T04:18:59.104Z,10.59
2022-09-05T04:22:36.085Z,10.68
2022-09-05T04:26:21.054Z,10.63
2022-09-05T04:29:57.081Z,10.64
2022-09-05T04:33:39.124Z,10.60
2022-09-05T04:37:18.078Z,10.62
2022-09-05T04:40:54.118Z,10.66
2022-09-05T04:44:23.079Z,11.07
2022-09-05T04:47:50.053Z,10.97
2022-09-05T04:51:23.083Z,11.12
2022-09-05T04:55:17.135Z,11.16
2022-09-05T05:00:27.638Z,11.19
2022-09-05T05:06:20.300Z,11.43
2022-09-05T05:07:10.209Z,11.21
2022-09-05T05:14:28.999Z,11.29
2022-09-05T05:18:13.919Z,11.33
2022-09-05T05:19:17.273Z,11.26
2022-09-05T05:22:47.128Z,11.26
2022-09-05T05:26:15.129Z,11.27
2022-09-05T05:30:02.080Z,11.19
2022-09-05T05:33:43.119Z,11.16
2022-09-05T05:37:11.081Z,11.16
2022-09-05T05:40:50.971Z,11.10
2022-09-05T05:44:27.144Z,11.11
2022-09-05T05:47:57.110Z,11.05
2022-09-05T05:52:01.434Z,10.95
2022-09-05T05:56:04.194Z,11.06
2022-09-05T05:59:56.490Z,10.94
2022-09-05T06:03:50.219Z,11.02
2022-09-05T06:07:20.152Z,11.03
2022-09-05T06:14:49.648Z,11.05
2022-09-05T06:15:22.454Z,10.94
2022-09-05T06:19:48.422Z,10.89
2022-09-05T06:23:57.087Z,10.86
2022-09-05T06:28:17.867Z,10.87
2022-09-05T06:31:57.135Z,10.90
2022-09-05T06:35:39.102Z,10.85
2022-09-05T06:39:26.208Z,10.88
2022-09-05T06:43:05.096Z,10.85
2022-09-05T06:46:55.349Z,10.88
2022-09-05T06:50:28.247Z,10.75
2022-09-05T06:54:04.181Z,10.82
2022-09-05T06:57:58.142Z,10.76
2022-09-05T07:01:23.275Z,10.82
2022-09-05T07:05:37.970Z,10.89
2022-09-05T07:09:04.125Z,10.87
2022-09-05T07:12:45.162Z,10.87
2022-09-05T07:16:16.127Z,10.88
2022-09-05T07:19:54.790Z,10.86
2022-09-05T07:24:06.636Z,10.82
2022-09-05T07:27:25.459Z,10.77
2022-09-05T07:30:51.144Z,10.81
2022-09-05T07:34:42.100Z,10.81
2022-09-05T07:38:41.909Z,10.79
2022-09-05T07:42:20.132Z,10.72
2022-09-05T07:45:52.298Z,10.73
2022-09-05T07:49:22.159Z,10.73
2022-09-05T07:57:09.518Z,10.74
2022-09-05T07:57:30.325Z,10.77
2022-09-05T08:00:59.165Z,10.70
2022-09-05T08:04:23.147Z,10.73
2022-09-05T08:07:52.171Z,10.77
2022-09-05T08:11:26.493Z,10.76
2022-09-05T08:15:04.128Z,10.79
2022-09-05T08:18:32.197Z,10.69
2022-09-05T08:22:05.124Z,10.70
2022-09-05T08:25:57.313Z,10.69
2022-09-05T08:29:28.151Z,10.74
2022-09-05T08:33:18.294Z,10.70
2022-09-05T08:36:54.173Z,10.70
2022-09-05T08:40:29.207Z,10.67
2022-09-05T08:46:42.192Z,10.68
2022-09-05T08:48:24.164Z,10.64
2022-09-05T08:52:12.162Z,10.56
2022-09-05T08:55:46.193Z,10.54
2022-09-05T08:59:28.319Z,10.53
2022-09-05T09:03:18.282Z,10.56
2022-09-05T09:07:47.084Z,10.49
2022-09-05T09:11:09.140Z,10.46
2022-09-05T09:14:38.162Z,10.43
2022-09-05T09:18:05.699Z,10.43
2022-09-05T09:21:52.219Z,10.45
2022-09-05T09:25:27.877Z,10.34
2022-09-05T09:28:57.179Z,10.31
2022-09-05T09:32:28.221Z,10.27
2022-09-05T09:35:54.333Z,10.30
2022-09-05T09:39:39.224Z,10.35
2022-09-05T09:43:20.134Z,10.28
2022-09-05T09:46:57.276Z,10.30
2022-09-05T09:50:47.834Z,10.25
2022-09-05T09:54:41.174Z,10.24
2022-09-05T09:58:31.281Z,10.28
2022-09-05T10:06:31.764Z,10.16
2022-09-05T10:10:53.742Z,10.13
2022-09-05T10:10:58.713Z,10.07
2022-09-05T10:14:47.849Z,10.05
2022-09-05T10:18:34.154Z,10.05
2022-09-05T10:25:51.207Z,9.94
2022-09-05T10:29:35.029Z,9.85
2022-09-05T10:35:17.458Z,9.90
2022-09-05T10:37:07.179Z,9.87
2022-09-05T10:41:19.689Z,9.79
2022-09-05T10:44:22.208Z,9.80
2022-09-05T10:48:26.164Z,9.72
2022-09-05T10:52:18.126Z,9.72
2022-09-05T10:56:00.165Z,9.58
2022-09-05T11:02:20.213Z,9.56
2022-09-05T11:03:40.263Z,9.47
2022-09-05T11:07:29.532Z,9.44
2022-09-05T11:11:28.769Z,9.34
2022-09-05T11:15:12.193Z,9.25
2022-09-05T11:19:26.246Z,9.25
2022-09-05T11:22:54.200Z,9.24
2022-09-05T11:26:23.231Z,9.20
2022-09-05T11:30:30.441Z,9.10
2022-09-05T11:39:35.123Z,9.17
2022-09-05T11:39:57.630Z,9.13
2022-09-05T11:42:05.222Z,9.08
2022-09-05T11:46:09.264Z,9.04
2022-09-05T11:49:59.261Z,8.96
2022-09-05T11:54:01.181Z,8.97
2022-09-05T11:57:39.255Z,8.89
2022-09-05T12:01:42.284Z,8.84
2022-09-05T12:05:50.307Z,8.86
2022-09-05T12:08:57.251Z,8.77
2022-09-05T12:12:43.387Z,8.78
2022-09-05T12:16:10.105Z,8.80
2022-09-05T12:19:50.206Z,8.83
2022-09-05T12:24:12.735Z,8.79
2022-09-05T12:27:41.242Z,8.86
2022-09-05T12:32:30.921Z,8.84
2022-09-05T12:36:04.818Z,8.86
2022-09-05T12:41:32.283Z,8.96
2022-09-05T12:43:52.658Z,8.82
2022-09-05T12:46:58.217Z,8.81
2022-09-05T12:51:00.194Z,8.87
2022-09-05T12:54:33.612Z,8.83
2022-09-05T13:03:05.944Z,8.79
2022-09-05T13:03:14.742Z,8.70
2022-09-05T13:05:34.310Z,8.70
2022-09-05T13:09:05.275Z,8.66
2022-09-05T13:14:52.638Z,8.61
2022-09-05T13:16:23.365Z,8.63
2022-09-05T13:19:59.285Z,8.62
2022-09-05T13:23:39.249Z,8.58
2022-09-05T13:27:28.256Z,8.65
2022-09-05T13:35:31.645Z,8.78
2022-09-05T13:38:11.509Z,8.75
2022-09-05T13:39:13.240Z,8.75
2022-09-05T13:42:48.235Z,8.76
2022-09-05T13:46:25.323Z,8.72
2022-09-05T13:49:53.282Z,8.78
2022-09-05T13:53:36.593Z,8.92
2022-09-05T13:57:12.275Z,8.86
2022-09-05T14:00:54.380Z,8.81
2022-09-05T14:08:26.285Z,8.90
2022-09-05T14:11:50.201Z,8.84
2022-09-05T14:15:24.876Z,8.84
2022-09-05T14:19:16.269Z,8.79
2022-09-05T14:23:21.305Z,8.84
2022-09-05T14:26:58.265Z,8.81
2022-09-05T14:32:07.929Z,8.78
2022-09-05T14:37:38.731Z,8.88
2022-09-05T14:38:31.657Z,8.82
2022-09-05T14:42:09.545Z,8.80
2022-09-05T14:46:00.883Z,8.82
2022-09-05T14:50:03.910Z,8.86
2022-09-05T15:02:38.685Z,8.75
2022-09-05T15:02:48.568Z,8.84
2022-09-05T15:05:10.989Z,8.85
2022-09-05T15:11:24.413Z,8.91
2022-09-05T15:12:45.297Z,8.82
2022-09-05T15:16:24.298Z,8.86
2022-09-05T15:20:07.474Z,8.88
2022-09-05T15:23:39.295Z,8.72
2022-09-05T15:27:06.286Z,8.70
2022-09-05T15:30:37.368Z,8.71
2022-09-05T15:34:02.238Z,8.76
2022-09-05T15:37:48.286Z,8.77
2022-09-05T15:41:34.349Z,8.67
2022-09-05T15:45:10.330Z,8.63
2022-09-05T15:48:34.889Z,8.59
2022-09-05T15:52:09.321Z,8.60
2022-09-05T15:55:39.283Z,8.53
2022-09-05T15:59:08.320Z,8.52
2022-09-05T16:02:45.357Z,8.47
2022-09-05T16:10:31.137Z,8.47
2022-09-05T16:10:48.539Z,8.49
2022-09-05T16:13:57.263Z,8.52
2022-09-05T16:23:14.178Z,8.57
2022-09-05T16:23:38.204Z,8.51
2022-09-05T16:25:30.388Z,8.40
2022-09-05T16:29:02.330Z,8.29
2022-09-05T16:32:33.285Z,8.18
2022-09-05T16:36:07.281Z,7.95
2022-09-05T16:39:35.379Z,8.00
2022-09-05T16:43:13.297Z,7.88
2022-09-05T16:46:37.319Z,7.80
2022-09-05T16:50:34.823Z,7.78
2022-09-05T16:54:10.995Z,7.69
2022-09-05T16:57:39.293Z,7.65
2022-09-05T17:01:36.403Z,7.68
2022-09-05T17:05:05.941Z,7.57
2022-09-05T17:08:42.338Z,7.57
2022-09-05T17:12:10.307Z,7.48
2022-09-05T17:15:51.925Z,7.37
2022-09-05T17:19:19.300Z,7.35
2022-09-05T17:26:21.703Z,7.26
2022-09-05T17:29:38.423Z,7.23
2022-09-05T17:35:17.390Z,7.18
2022-09-05T17:39:45.096Z,7.07
2022-09-05T17:43:13.318Z,6.98
2022-09-05T17:47:02.333Z,6.91
2022-09-05T17:50:33.653Z,6.82
2022-09-05T17:54:23.375Z,6.77
2022-09-05T17:57:49.292Z,6.63
2022-09-05T18:01:17.443Z,6.81
2022-09-05T18:04:59.352Z,6.82
2022-09-05T18:08:22.318Z,6.82
2022-09-05T18:11:48.346Z,6.78
2022-09-05T18:15:13.359Z,6.77
2022-09-05T18:19:28.145Z,6.72
2022-09-05T18:22:43.294Z,6.56
2022-09-05T18:26:17.289Z,6.54
2022-09-05T18:29:58.668Z,6.45
2022-09-05T18:33:53.417Z,6.52
2022-09-05T18:37:12.356Z,6.48
2022-09-05T18:40:54.287Z,6.47
2022-09-05T18:44:24.308Z,6.35
2022-09-05T18:48:09.130Z,6.22
2022-09-05T18:51:38.275Z,6.12
2022-09-05T18:56:08.948Z,6.10
2022-09-05T18:59:09.735Z,6.13
2022-09-05T19:02:51.328Z,6.16
2022-09-05T19:06:37.231Z,6.40
2022-09-05T19:10:34.979Z,8.07
2022-09-05T19:14:25.675Z,8.65
2022-09-05T19:17:53.331Z,8.48
2022-09-05T19:21:19.329Z,8.97
2022-09-05T19:24:45.521Z,9.12
2022-09-05T19:35:03.683Z,9.69
2022-09-05T19:37:05.307Z,10.42
2022-09-05T19:37:14.274Z,9.82
2022-09-05T19:43:10.859Z,9.43
2022-09-05T19:47:44.057Z,8.92
2022-09-05T19:48:04.111Z,9.36
2022-09-05T19:51:26.211Z,9.11
2022-09-05T19:54:44.373Z,8.89
2022-09-05T19:58:28.089Z,8.79
2022-09-05T20:01:59.367Z,8.44
2022-09-05T20:05:23.353Z,8.78
2022-09-05T20:08:49.380Z,8.56
2022-09-05T20:12:13.361Z,9.04
2022-09-05T20:15:41.392Z,9.35
2022-09-05T20:19:05.638Z,9.04
2022-09-05T20:22:49.111Z,9.34
2022-09-05T20:26:13.361Z,9.40
2022-09-05T20:29:54.925Z,9.46
2022-09-05T20:33:32.308Z,9.53
2022-09-05T20:43:09.907Z,9.30
2022-09-05T20:43:29.179Z,9.57
2022-09-05T20:44:34.424Z,9.84
2022-09-05T20:54:06.027Z,9.88
2022-09-05T20:54:13.816Z,9.98
2022-09-05T20:55:46.412Z,9.96
2022-09-05T20:59:10.393Z,10.37
2022-09-05T21:02:37.455Z,10.48
2022-09-05T21:06:03.401Z,10.25
2022-09-05T21:09:33.414Z,10.44
2022-09-05T21:13:00.364Z,10.82
2022-09-05T21:16:32.481Z,10.94
2022-09-05T21:19:56.379Z,11.01
2022-09-05T21:23:35.373Z,11.03
2022-09-05T21:26:59.342Z,11.32
2022-09-05T21:30:37.373Z,11.26
2022-09-05T21:34:02.390Z,10.93
2022-09-05T21:37:31.382Z,11.00
2022-09-05T21:40:59.389Z,11.38
2022-09-05T21:47:44.090Z,11.58
2022-09-05T21:48:05.454Z,11.60
2022-09-05T21:51:34.380Z,11.41
2022-09-05T21:59:13.636Z,11.98
2022-09-05T21:59:36.649Z,12.04
2022-09-05T22:02:28.553Z,11.99
2022-09-05T22:05:52.338Z,12.26
2022-09-05T22:09:21.423Z,12.35
2022-09-05T22:12:46.338Z,12.14
2022-09-05T22:16:12.424Z,11.77
2022-09-05T22:19:42.332Z,12.23
2022-09-05T22:23:05.368Z,12.43
2022-09-05T22:26:24.403Z,12.49
2022-09-05T22:29:47.429Z,12.25
2022-09-05T22:33:14.369Z,12.28
2022-09-05T22:36:40.341Z,12.43
2022-09-05T22:40:04.402Z,12.93
2022-09-05T22:43:28.417Z,13.01
2022-09-05T22:46:53.406Z,13.31
2022-09-05T22:50:17.370Z,13.39
2022-09-05T22:53:33.991Z,13.32
2022-09-05T22:56:51.431Z,13.84
2022-09-05T23:00:14.407Z,13.96
2022-09-05T23:03:38.428Z,14.09
2022-09-05T23:07:02.371Z,14.14
2022-09-05T23:10:26.382Z,14.65
2022-09-05T23:13:51.414Z,14.76
2022-09-05T23:17:15.373Z,14.68
2022-09-05T23:20:40.380Z,14.91
2022-09-05T23:24:04.426Z,14.23
2022-09-05T23:27:27.374Z,14.99
2022-09-05T23:30:51.474Z,14.65
2022-09-05T23:34:16.420Z,14.13
2022-09-05T23:37:40.432Z,14.61
2022-09-05T23:41:04.374Z,14.95
2022-09-05T23:44:28.401Z,15.87
2022-09-05T23:47:51.415Z,16.24
2022-09-05T23:51:24.360Z,15.61
2022-09-05T23:54:47.454Z,15.63
2022-09-05T23:58:15.396Z,16.27
